createdAt,value
2019-04-19T00:01:55.324Z,9.30
2019-04-19T00:04:20.275Z,7.70
2019-04-19T00:07:02.022Z,7.67
2019-04-19T00:09:36.216Z,8.77
2019-04-19T00:12:09.192Z,8.20
2019-04-19T00:14:25.741Z,8.23
2019-04-19T00:16:57.470Z,8.33
2019-04-19T00:19:49.502Z,8.40
2019-04-19T00:22:18.518Z,9.47
2019-04-19T00:24:30.518Z,8.93
2019-04-19T00:27:02.257Z,12.00
2019-04-19T00:29:42.855Z,10.60
2019-04-19T00:32:18.858Z,8.83
2019-04-19T00:34:35.586Z,8.40
2019-04-19T00:37:05.786Z,8.67
2019-04-19T00:40:07.557Z,9.37
2019-04-19T00:42:47.951Z,8.40
2019-04-19T00:45:26.422Z,8.73
2019-04-19T00:47:58.665Z,9.00
2019-04-19T00:50:26.836Z,9.53
2019-04-19T00:53:02.919Z,10.97
2019-04-19T00:55:25.746Z,9.90
2019-04-19T00:57:58.026Z,9.63
2019-04-19T01:00:25.995Z,9.23
2019-04-19T01:02:56.073Z,9.80
2019-04-19T01:05:27.676Z,9.70
2019-04-19T01:07:55.674Z,10.20
2019-04-19T01:10:36.854Z,10.63
2019-04-19T01:13:09.910Z,9.33
2019-04-19T01:15:36.526Z,9.07
2019-04-19T01:18:15.274Z,9.80
2019-04-19T01:20:31.152Z,8.93
2019-04-19T01:23:07.427Z,10.20
2019-04-19T01:25:33.641Z,9.83
2019-04-19T01:28:10.974Z,9.13
2019-04-19T01:30:38.471Z,8.80
2019-04-19T01:33:07.097Z,9.57
2019-04-19T01:35:41.091Z,9.20
2019-04-19T01:38:10.178Z,8.77
2019-04-19T01:40:59.193Z,9.00
2019-04-19T01:43:27.839Z,9.40
2019-04-19T01:46:09.289Z,9.67
2019-04-19T01:49:14.164Z,10.00
2019-04-19T01:52:22.396Z,10.83
2019-04-19T01:54:47.644Z,10.73
2019-04-19T01:57:05.435Z,10.47
2019-04-19T01:59:39.842Z,10.13
2019-04-19T02:02:09.468Z,9.60
2019-04-19T02:04:36.526Z,9.50
2019-04-19T02:07:12.626Z,9.97
2019-04-19T02:09:57.473Z,9.93
2019-04-19T02:12:22.433Z,10.10
2019-04-19T02:15:04.792Z,10.10
2019-04-19T02:17:37.255Z,9.27
2019-04-19T02:20:04.120Z,10.00
2019-04-19T02:22:36.079Z,9.73
2019-04-19T02:25:03.869Z,9.93
2019-04-19T02:27:40.060Z,10.07
2019-04-19T02:30:15.886Z,9.53
2019-04-19T02:32:55.681Z,10.10
2019-04-19T02:35:31.803Z,11.23
2019-04-19T02:38:04.274Z,11.13
2019-04-19T02:40:52.334Z,9.93
2019-04-19T02:43:10.609Z,9.77
2019-04-19T02:45:44.324Z,10.43
2019-04-19T02:48:13.269Z,9.47
2019-04-19T02:55:45.786Z,9.57
2019-04-19T03:01:17.272Z,10.20
2019-04-19T03:03:27.416Z,10.00
2019-04-19T03:05:57.104Z,10.37
2019-04-19T03:08:10.639Z,9.83
2019-04-19T03:10:53.513Z,9.87
2019-04-19T03:13:29.641Z,9.07
2019-04-19T03:15:58.321Z,9.37
2019-04-19T03:18:30.770Z,9.33
2019-04-19T03:20:54.188Z,8.70
2019-04-19T03:23:26.226Z,9.93
2019-04-19T03:25:54.691Z,10.60
2019-04-19T03:28:26.672Z,10.83
2019-04-19T03:31:20.429Z,11.20
2019-04-19T03:36:11.999Z,10.10
2019-04-19T03:38:40.344Z,10.17
2019-04-19T03:41:18.893Z,10.13
2019-04-19T03:43:51.789Z,9.20
2019-04-19T03:46:21.442Z,9.87
2019-04-19T03:48:51.828Z,9.50
2019-04-19T03:51:24.248Z,9.53
2019-04-19T03:54:14.423Z,9.83
2019-04-19T03:56:30.318Z,10.17
2019-04-19T03:58:41.804Z,9.07
2019-04-19T04:01:12.822Z,9.03
2019-04-19T04:03:46.677Z,8.40
2019-04-19T04:06:23.057Z,8.73
2019-04-19T04:08:53.659Z,8.37
2019-04-19T04:11:29.545Z,9.33
2019-04-19T04:14:15.012Z,11.63
2019-04-19T04:16:53.775Z,13.27
2019-04-19T04:19:23.064Z,9.90
2019-04-19T04:21:54.002Z,9.53
2019-04-19T04:24:32.040Z,9.00
2019-04-19T04:27:05.857Z,11.27
2019-04-19T04:29:34.734Z,10.90
2019-04-19T04:32:11.346Z,9.67
2019-04-19T04:34:40.934Z,10.40
2019-04-19T04:37:17.011Z,11.30
2019-04-19T04:39:32.330Z,14.73
2019-04-19T04:42:11.324Z,12.37
2019-04-19T04:45:01.732Z,17.93
2019-04-19T04:47:39.357Z,17.00
2019-04-19T04:50:19.456Z,11.03
2019-04-19T04:52:40.523Z,14.03
2019-04-19T04:55:15.870Z,13.37
2019-04-19T04:57:52.141Z,13.60
2019-04-19T05:00:20.368Z,14.30
2019-04-19T05:03:06.114Z,12.03
2019-04-19T05:05:35.729Z,11.73
2019-04-19T05:08:14.594Z,12.90
2019-04-19T05:10:35.950Z,11.67
2019-04-19T05:13:19.672Z,11.10
2019-04-19T05:15:43.399Z,11.33
2019-04-19T05:20:41.057Z,12.80
2019-04-19T05:23:14.629Z,12.73
2019-04-19T05:25:51.395Z,13.07
2019-04-19T05:28:16.767Z,12.40
2019-04-19T05:30:41.184Z,13.03
2019-04-19T05:33:14.109Z,12.73
2019-04-19T05:35:52.369Z,10.33
2019-04-19T05:38:44.945Z,10.90
2019-04-19T05:41:29.745Z,12.43
2019-04-19T05:44:37.158Z,15.67
2019-04-19T05:47:01.427Z,21.17
2019-04-19T05:49:28.091Z,21.63
2019-04-19T05:52:02.129Z,15.37
2019-04-19T05:54:16.992Z,14.83
2019-04-19T05:56:53.245Z,14.23
2019-04-19T05:59:30.581Z,12.90
2019-04-19T06:02:02.226Z,11.23
2019-04-19T06:04:38.974Z,10.53
2019-04-19T06:07:10.487Z,10.33
2019-04-19T06:09:21.910Z,13.17
2019-04-19T06:11:53.239Z,12.57
2019-04-19T06:14:45.407Z,17.27
2019-04-19T06:17:48.781Z,13.87
2019-04-19T06:20:16.317Z,21.73
2019-04-19T06:22:53.470Z,12.27
2019-04-19T06:25:24.708Z,30.80
2019-04-19T06:28:09.372Z,14.40
2019-04-19T06:30:27.250Z,12.10
2019-04-19T06:32:56.277Z,12.97
2019-04-19T06:35:22.153Z,14.80
2019-04-19T06:37:41.978Z,11.67
2019-04-19T06:40:19.745Z,11.30
2019-04-19T06:42:54.287Z,12.23
2019-04-19T06:45:32.220Z,12.53
2019-04-19T06:47:54.289Z,12.63
2019-04-19T06:50:25.769Z,13.07
2019-04-19T06:52:48.998Z,13.17
2019-04-19T06:55:25.995Z,13.13
2019-04-19T06:57:58.966Z,14.57
2019-04-19T07:00:34.957Z,16.23
2019-04-19T07:02:54.195Z,20.60
2019-04-19T07:05:37.327Z,16.80
2019-04-19T07:08:29.978Z,14.47
2019-04-19T07:10:51.507Z,15.23
2019-04-19T07:13:16.195Z,14.53
2019-04-19T07:15:59.989Z,14.90
2019-04-19T07:18:19.035Z,14.53
2019-04-19T07:20:54.699Z,16.13
2019-04-19T07:23:26.124Z,16.57
2019-04-19T07:26:00.062Z,17.87
2019-04-19T07:28:12.427Z,15.43
2019-04-19T07:30:37.394Z,15.07
2019-04-19T07:33:12.972Z,17.30
2019-04-19T07:36:01.911Z,15.77
2019-04-19T07:38:29.079Z,17.27
2019-04-19T07:41:01.190Z,15.33
2019-04-19T07:43:28.867Z,14.97
2019-04-19T07:46:14.081Z,15.47
2019-04-19T07:48:36.569Z,15.90
2019-04-19T07:51:13.437Z,15.67
2019-04-19T07:53:44.307Z,18.10
2019-04-19T07:56:23.918Z,15.70
2019-04-19T07:59:07.863Z,16.07
2019-04-19T08:01:45.689Z,15.13
2019-04-19T08:04:19.900Z,15.27
2019-04-19T08:09:11.340Z,15.80
2019-04-19T08:14:35.839Z,15.90
2019-04-19T08:17:26.359Z,15.93
2019-04-19T08:29:07.170Z,16.37
2019-04-19T08:31:25.675Z,15.83
2019-04-19T08:33:55.220Z,19.03
2019-04-19T08:36:32.192Z,16.83
2019-04-19T08:39:17.108Z,15.53
2019-04-19T08:41:46.845Z,15.20
2019-04-19T08:44:18.151Z,15.53
2019-04-19T08:46:43.027Z,17.33
2019-04-19T08:49:28.399Z,16.97
2019-04-19T08:52:00.011Z,15.33
2019-04-19T08:54:56.509Z,18.23
2019-04-19T08:57:08.103Z,17.47
2019-04-19T08:59:53.812Z,14.50
2019-04-19T09:02:24.966Z,15.67
2019-04-19T09:04:55.124Z,15.13
2019-04-19T09:10:17.778Z,14.83
2019-04-19T09:12:30.856Z,16.73
2019-04-19T09:15:09.655Z,15.07
2019-04-19T09:17:59.334Z,14.23
2019-04-19T09:20:15.286Z,14.07
2019-04-19T09:22:37.190Z,17.17
2019-04-19T09:25:06.614Z,13.87
2019-04-19T09:27:52.219Z,13.33
2019-04-19T09:30:24.181Z,14.07
2019-04-19T09:32:35.965Z,15.77
2019-04-19T09:35:09.285Z,14.30
2019-04-19T09:37:47.700Z,19.50
2019-04-19T09:40:13.836Z,13.70
2019-04-19T09:42:51.081Z,13.90
2019-04-19T09:45:12.574Z,13.57
2019-04-19T09:47:42.580Z,12.80
2019-04-19T09:50:30.268Z,13.30
2019-04-19T09:53:10.450Z,12.73
2019-04-19T09:55:42.589Z,13.10
2019-04-19T09:58:08.839Z,13.03
2019-04-19T10:00:28.147Z,12.47
2019-04-19T10:03:02.784Z,13.20
2019-04-19T10:05:28.612Z,10.70
2019-04-19T10:07:59.673Z,12.30
2019-04-19T10:10:31.144Z,14.27
2019-04-19T10:13:03.589Z,11.00
2019-04-19T10:15:42.860Z,10.93
2019-04-19T10:18:14.524Z,10.30
2019-04-19T10:21:19.306Z,12.90
2019-04-19T10:23:41.469Z,10.23
2019-04-19T10:26:20.099Z,9.17
2019-04-19T10:28:50.865Z,10.57
2019-04-19T10:31:29.505Z,8.80
2019-04-19T10:34:02.996Z,9.33
2019-04-19T10:36:33.105Z,13.00
2019-04-19T10:39:03.497Z,8.97
2019-04-19T10:41:34.206Z,9.43
2019-04-19T10:44:13.217Z,7.03
2019-04-19T10:46:36.797Z,7.13
2019-04-19T10:49:14.343Z,13.07
2019-04-19T10:51:43.861Z,7.23
2019-04-19T10:54:14.862Z,7.87
2019-04-19T10:56:56.465Z,6.33
2019-04-19T10:59:27.388Z,9.17
2019-04-19T11:01:57.760Z,7.83
2019-04-19T11:04:28.874Z,6.27
2019-04-19T11:06:59.826Z,5.30
2019-04-19T11:09:31.166Z,4.97
2019-04-19T11:12:01.791Z,12.50
2019-04-19T11:14:34.341Z,9.17
2019-04-19T11:17:07.449Z,27.53
2019-04-19T11:19:49.697Z,14.90
2019-04-19T11:22:09.772Z,7.67
2019-04-19T11:24:41.556Z,5.13
2019-04-19T11:27:13.209Z,6.87
2019-04-19T11:29:44.769Z,6.00
2019-04-19T11:32:26.034Z,6.93
2019-04-19T11:34:56.254Z,6.00
2019-04-19T11:37:27.300Z,5.90
2019-04-19T11:39:57.698Z,17.40
2019-04-19T11:42:27.805Z,6.83
2019-04-19T11:44:59.357Z,21.83
2019-04-19T11:47:29.534Z,10.97
2019-04-19T11:50:00.214Z,6.60
2019-04-19T11:52:39.760Z,6.87
2019-04-19T11:55:10.694Z,5.70
2019-04-19T11:57:48.361Z,5.17
2019-04-19T12:00:38.011Z,6.63
2019-04-19T12:03:09.827Z,7.17
2019-04-19T12:05:40.040Z,8.93
2019-04-19T12:08:10.648Z,5.90
2019-04-19T12:10:40.655Z,6.20
2019-04-19T12:13:11.007Z,5.87
2019-04-19T12:15:42.186Z,5.87
2019-04-19T12:18:12.559Z,7.27
2019-04-19T12:20:42.906Z,5.73
2019-04-19T12:23:13.830Z,5.73
2019-04-19T12:25:45.802Z,5.97
2019-04-19T12:28:16.054Z,5.67
2019-04-19T12:30:50.566Z,6.50
2019-04-19T12:33:19.441Z,5.20
2019-04-19T12:35:49.763Z,5.60
2019-04-19T12:38:19.957Z,7.27
2019-04-19T12:40:58.210Z,6.33
2019-04-19T12:43:29.933Z,7.57
2019-04-19T12:46:01.081Z,5.83
2019-04-19T12:48:31.988Z,5.80
2019-04-19T12:51:02.289Z,6.83
2019-04-19T12:53:32.911Z,5.60
2019-04-19T12:56:04.128Z,6.00
2019-04-19T12:58:35.792Z,5.80
2019-04-19T13:01:21.873Z,6.43
2019-04-19T13:04:04.374Z,5.97
2019-04-19T13:06:35.898Z,6.10
2019-04-19T13:09:08.935Z,6.77
2019-04-19T13:11:41.081Z,7.50
2019-04-19T13:14:12.121Z,6.30
2019-04-19T13:16:44.051Z,5.93
2019-04-19T13:19:19.403Z,6.30
2019-04-19T13:21:48.872Z,6.17
2019-04-19T13:24:20.412Z,6.63
2019-04-19T13:26:51.695Z,7.13
2019-04-19T13:29:21.269Z,6.97
2019-04-19T13:31:52.463Z,6.50
2019-04-19T13:34:25.224Z,6.80
2019-04-19T13:37:29.546Z,6.30
2019-04-19T13:40:19.865Z,8.43
2019-04-19T13:42:52.535Z,6.07
2019-04-19T13:45:29.627Z,7.17
2019-04-19T13:47:56.957Z,6.57
2019-04-19T13:50:33.151Z,6.43
2019-04-19T13:52:58.890Z,7.57
2019-04-19T13:55:29.073Z,6.10
2019-04-19T13:57:59.770Z,6.33
2019-04-19T14:00:46.782Z,6.73
2019-04-19T14:03:23.703Z,7.17
2019-04-19T14:05:54.772Z,6.27
2019-04-19T14:08:25.238Z,6.80
2019-04-19T14:10:57.101Z,6.67
2019-04-19T14:13:27.390Z,6.03
2019-04-19T14:15:58.811Z,6.70
2019-04-19T14:18:30.869Z,7.23
2019-04-19T14:21:01.507Z,8.50
2019-04-19T14:23:33.247Z,11.83
2019-04-19T14:26:05.379Z,6.70
2019-04-19T14:28:35.894Z,6.50
2019-04-19T14:31:06.773Z,7.63
2019-04-19T14:33:37.295Z,7.03
2019-04-19T14:36:08.171Z,5.77
2019-04-19T14:38:41.299Z,5.77
2019-04-19T14:41:11.825Z,6.00
2019-04-19T14:43:42.748Z,6.35
2019-04-19T14:46:14.295Z,5.70
2019-04-19T14:48:47.281Z,6.25
2019-04-19T14:51:24.681Z,5.78
2019-04-19T14:53:49.752Z,6.83
2019-04-19T14:56:20.017Z,5.58
2019-04-19T14:58:50.840Z,5.35
2019-04-19T15:01:35.051Z,5.42
2019-04-19T15:04:10.966Z,6.12
2019-04-19T15:06:41.892Z,5.37
2019-04-19T15:09:12.100Z,6.00
2019-04-19T15:11:43.447Z,4.70
2019-04-19T15:14:14.453Z,6.62
2019-04-19T15:16:45.384Z,5.00
2019-04-19T15:19:16.733Z,4.92
2019-04-19T15:21:46.514Z,5.62
2019-04-19T15:24:16.886Z,5.28
2019-04-19T15:26:47.435Z,4.97
2019-04-19T15:29:18.862Z,5.55
2019-04-19T15:31:48.648Z,4.72
2019-04-19T15:34:19.985Z,5.08
2019-04-19T15:36:49.921Z,4.60
2019-04-19T15:39:19.772Z,4.70
2019-04-19T15:41:50.641Z,4.20
2019-04-19T15:44:20.741Z,5.70
2019-04-19T15:46:50.126Z,4.13
2019-04-19T15:49:21.731Z,5.85
2019-04-19T15:51:52.019Z,4.13
2019-04-19T15:54:21.976Z,4.30
2019-04-19T15:56:52.110Z,3.80
2019-04-19T15:59:24.979Z,4.83
2019-04-19T16:02:11.602Z,13.53
2019-04-19T16:04:59.798Z,4.57
2019-04-19T16:07:35.935Z,4.57
2019-04-19T16:10:19.795Z,4.90
2019-04-19T16:12:49.933Z,4.70
2019-04-19T16:15:20.119Z,6.87
2019-04-19T16:17:50.270Z,6.90
2019-04-19T16:20:21.147Z,4.57
2019-04-19T16:22:52.020Z,4.50
2019-04-19T16:25:23.245Z,4.90
2019-04-19T16:27:53.566Z,7.40
2019-04-19T16:30:24.051Z,4.60
2019-04-19T16:32:55.050Z,7.10
2019-04-19T16:35:26.407Z,5.43
2019-04-19T16:37:57.492Z,5.33
2019-04-19T16:40:28.104Z,9.93
2019-04-19T16:42:59.279Z,10.10
2019-04-19T16:45:30.184Z,7.53
2019-04-19T16:48:00.155Z,6.83
2019-04-19T16:50:30.497Z,6.40
2019-04-19T16:53:03.167Z,8.10
2019-04-19T16:55:31.717Z,7.93
2019-04-19T16:58:02.837Z,5.40
2019-04-19T17:00:42.996Z,5.63
2019-04-19T17:03:14.095Z,7.90
2019-04-19T17:05:44.647Z,5.87
2019-04-19T17:08:15.558Z,9.57
2019-04-19T17:10:46.852Z,6.40
2019-04-19T17:13:17.009Z,9.53
2019-04-19T17:16:11.734Z,10.67
2019-04-19T17:19:03.180Z,10.00
2019-04-19T17:21:45.206Z,7.40
2019-04-19T17:24:05.037Z,7.40
2019-04-19T17:26:35.234Z,9.13
2019-04-19T17:29:06.565Z,7.27
2019-04-19T17:31:36.696Z,9.90
2019-04-19T17:34:26.336Z,7.53
2019-04-19T17:36:56.350Z,10.30
2019-04-19T17:39:26.736Z,13.20
2019-04-19T17:41:56.765Z,11.13
2019-04-19T17:44:26.053Z,49.73
2019-04-19T17:46:56.365Z,19.33
2019-04-19T17:49:26.617Z,12.67
2019-04-19T17:52:04.716Z,18.67
2019-04-19T17:54:43.153Z,22.50
2019-04-19T17:56:59.514Z,15.90
2019-04-19T17:59:30.199Z,15.93
2019-04-19T18:02:01.233Z,13.23
2019-04-19T18:04:33.114Z,11.20
2019-04-19T18:07:04.617Z,10.93
2019-04-19T18:09:33.349Z,16.97
2019-04-19T18:12:03.132Z,12.53
2019-04-19T18:14:33.721Z,8.27
2019-04-19T18:17:03.573Z,8.43
2019-04-19T18:19:36.250Z,7.70
2019-04-19T18:22:15.282Z,6.07
2019-04-19T18:24:40.417Z,7.60
2019-04-19T18:27:09.085Z,10.20
2019-04-19T18:29:38.040Z,11.23
2019-04-19T18:32:25.938Z,8.43
2019-04-19T18:34:55.933Z,9.83
2019-04-19T18:37:29.622Z,8.50
2019-04-19T18:39:56.349Z,15.90
2019-04-19T18:42:26.038Z,9.47
2019-04-19T18:44:59.437Z,6.97
2019-04-19T18:47:27.135Z,11.97
2019-04-19T18:49:57.372Z,10.93
2019-04-19T18:52:38.381Z,12.47
2019-04-19T18:55:05.020Z,10.43
2019-04-19T18:57:33.924Z,8.73
2019-04-19T19:00:02.125Z,5.70
2019-04-19T19:02:32.292Z,5.47
2019-04-19T19:05:05.660Z,7.50
2019-04-19T19:07:34.682Z,6.77
2019-04-19T19:10:06.275Z,7.87
2019-04-19T19:12:41.442Z,6.33
2019-04-19T19:15:08.349Z,8.00
2019-04-19T19:17:38.144Z,7.67
2019-04-19T19:20:16.915Z,9.57
2019-04-19T19:23:00.199Z,9.77
2019-04-19T19:25:33.102Z,7.70
2019-04-19T19:27:50.419Z,6.20
2019-04-19T19:30:21.004Z,6.43
2019-04-19T19:32:53.957Z,5.67
2019-04-19T19:35:24.759Z,6.40
2019-04-19T19:37:52.725Z,12.10
2019-04-19T19:40:29.597Z,11.50
2019-04-19T19:43:11.720Z,11.57
2019-04-19T19:45:41.475Z,8.23
2019-04-19T19:48:23.721Z,6.97
2019-04-19T19:50:51.818Z,6.27
2019-04-19T19:53:35.859Z,5.97
2019-04-19T19:56:02.956Z,8.90
2019-04-19T19:58:17.189Z,9.60
2019-04-19T20:00:55.608Z,8.93
2019-04-19T20:03:16.380Z,7.13
2019-04-19T20:05:40.865Z,6.00
2019-04-19T20:08:09.608Z,9.63
2019-04-19T20:10:44.088Z,8.13
2019-04-19T20:13:15.917Z,7.07
2019-04-19T20:15:45.983Z,6.20
2019-04-19T20:18:14.421Z,9.20
2019-04-19T20:20:44.440Z,9.20
2019-04-19T20:23:21.693Z,8.23
2019-04-19T20:25:54.825Z,12.53
2019-04-19T20:28:23.637Z,12.60
2019-04-19T20:30:50.649Z,15.47
2019-04-19T20:33:19.668Z,13.17
2019-04-19T20:35:54.633Z,12.90
2019-04-19T20:38:24.738Z,16.67
2019-04-19T20:40:58.307Z,11.97
2019-04-19T20:43:39.841Z,9.90
2019-04-19T20:45:56.306Z,9.50
2019-04-19T20:48:28.076Z,10.33
2019-04-19T20:51:06.449Z,9.27
2019-04-19T20:53:38.197Z,15.10
2019-04-19T20:56:54.993Z,11.23
2019-04-19T20:58:52.560Z,9.93
2019-04-19T21:01:18.828Z,12.83
2019-04-19T21:03:49.758Z,10.63
2019-04-19T21:06:28.705Z,11.73
2019-04-19T21:08:52.675Z,9.50
2019-04-19T21:11:21.851Z,8.50
2019-04-19T21:13:56.711Z,8.83
2019-04-19T21:16:25.507Z,8.40
2019-04-19T21:18:56.869Z,9.27
2019-04-19T21:21:24.392Z,11.27
2019-04-19T21:24:00.509Z,11.73
2019-04-19T21:26:29.271Z,11.40
2019-04-19T21:28:58.060Z,12.20
2019-04-19T21:31:36.058Z,11.13
2019-04-19T21:34:02.934Z,10.87
2019-04-19T21:36:36.937Z,8.53
2019-04-19T21:39:06.464Z,9.70
2019-04-19T21:41:35.373Z,15.53
2019-04-19T21:44:04.829Z,10.30
2019-04-19T21:46:35.178Z,14.03
2019-04-19T21:49:08.993Z,18.23
2019-04-19T21:51:37.744Z,12.80
2019-04-19T21:54:08.253Z,11.83
2019-04-19T21:56:43.841Z,12.10
2019-04-19T21:59:11.106Z,11.20
2019-04-19T22:01:46.640Z,10.77
2019-04-19T22:04:15.719Z,9.33
2019-04-19T22:06:53.672Z,9.50
2019-04-19T22:09:21.767Z,9.90
2019-04-19T22:11:50.246Z,9.23
2019-04-19T22:14:24.859Z,9.87
2019-04-19T22:16:52.593Z,10.17
2019-04-19T22:19:27.955Z,10.60
2019-04-19T22:21:53.608Z,10.47
2019-04-19T22:24:31.105Z,11.33
2019-04-19T22:26:57.504Z,9.30
2019-04-19T22:29:27.432Z,10.63
2019-04-19T22:32:04.801Z,12.17
2019-04-19T22:34:28.595Z,10.37
2019-04-19T22:37:01.312Z,12.07
2019-04-19T22:39:29.715Z,13.30
2019-04-19T22:42:01.921Z,9.53
2019-04-19T22:44:32.483Z,10.37
2019-04-19T22:47:02.266Z,13.30
2019-04-19T22:49:33.959Z,10.67
2019-04-19T22:52:02.801Z,10.47
2019-04-19T22:54:32.883Z,11.50
2019-04-19T22:57:12.026Z,12.30
2019-04-19T22:59:33.845Z,10.73
2019-04-19T23:02:36.461Z,12.07
2019-04-19T23:05:03.161Z,9.43
2019-04-19T23:07:40.051Z,9.30
2019-04-19T23:10:06.528Z,10.23
2019-04-19T23:12:37.620Z,9.57
2019-04-19T23:15:15.708Z,10.20
2019-04-19T23:17:42.645Z,10.50
2019-04-19T23:20:13.727Z,10.40
2019-04-19T23:22:44.540Z,9.17
2019-04-19T23:25:15.591Z,10.07
2019-04-19T23:27:49.737Z,9.57
2019-04-19T23:30:22.306Z,8.30
2019-04-19T23:32:50.437Z,9.17
2019-04-19T23:35:28.577Z,9.77
2019-04-19T23:37:53.510Z,11.67
2019-04-19T23:40:29.364Z,10.63
2019-04-19T23:42:55.532Z,12.83
2019-04-19T23:45:32.969Z,10.37
2019-04-19T23:47:58.184Z,12.20
2019-04-19T23:50:32.592Z,10.30
2019-04-19T23:53:00.931Z,11.37
2019-04-19T23:55:30.570Z,9.97
2019-04-19T23:58:01.332Z,9.97
